createdAt,value
2022-11-27T00:01:21.084Z,36.35
2022-11-27T00:03:49.541Z,41.92
2022-11-27T00:06:20.886Z,37.88
2022-11-27T00:08:49.638Z,36.28
2022-11-27T00:11:20.507Z,40.35
2022-11-27T00:13:49.747Z,40.35
2022-11-27T00:16:19.030Z,37.30
2022-11-27T00:18:47.680Z,41.90
2022-11-27T00:21:19.795Z,39.58
2022-11-27T00:23:47.914Z,43.15
2022-11-27T00:26:16.640Z,43.58
2022-11-27T00:28:44.798Z,41.78
2022-11-27T00:31:16.057Z,47.80
2022-11-27T00:33:44.653Z,44.92
2022-11-27T00:36:13.833Z,50.17
2022-11-27T00:38:43.761Z,39.30
2022-11-27T00:41:13.643Z,36.75
2022-11-27T00:43:45.078Z,35.25
2022-11-27T00:46:14.228Z,32.88
2022-11-27T00:48:42.534Z,31.45
2022-11-27T00:51:13.273Z,32.45
2022-11-27T00:53:43.602Z,31.75
2022-11-27T00:56:15.941Z,28.42
2022-11-27T00:58:44.084Z,26.52
2022-11-27T01:01:18.529Z,26.73
2022-11-27T01:03:47.172Z,25.63
2022-11-27T01:06:16.904Z,23.23
2022-11-27T01:08:47.151Z,23.92
2022-11-27T01:11:17.311Z,22.00
2022-11-27T01:13:45.606Z,21.67
2022-11-27T01:16:16.232Z,26.00
2022-11-27T01:18:45.966Z,22.83
2022-11-27T01:21:15.498Z,25.67
2022-11-27T01:23:43.649Z,25.73
2022-11-27T01:26:14.259Z,24.88
2022-11-27T01:28:42.464Z,26.30
2022-11-27T01:31:13.816Z,33.90
2022-11-27T01:33:42.029Z,28.23
2022-11-27T01:36:12.978Z,30.23
2022-11-27T01:38:41.598Z,30.48
2022-11-27T01:41:15.897Z,34.47
2022-11-27T01:43:46.580Z,31.55
2022-11-27T01:46:26.729Z,32.25
2022-11-27T01:49:04.280Z,34.90
2022-11-27T01:51:32.754Z,33.58
2022-11-27T01:54:01.129Z,29.88
2022-11-27T01:56:31.300Z,33.38
2022-11-27T01:59:01.067Z,33.10
2022-11-27T02:01:29.344Z,35.53
2022-11-27T02:04:01.819Z,29.33
2022-11-27T02:06:30.277Z,32.15
2022-11-27T02:08:58.859Z,31.77
2022-11-27T02:11:35.584Z,29.40
2022-11-27T02:14:11.872Z,34.00
2022-11-27T02:16:47.527Z,31.80
2022-11-27T02:19:26.653Z,34.17
2022-11-27T02:22:01.367Z,34.85
2022-11-27T02:24:51.805Z,35.55
2022-11-27T02:27:44.417Z,39.38
2022-11-27T02:30:14.465Z,32.80
2022-11-27T02:32:49.262Z,33.55
2022-11-27T02:35:24.495Z,35.33
2022-11-27T02:37:57.513Z,31.25
2022-11-27T02:40:32.290Z,36.90
2022-11-27T02:43:04.686Z,35.45
2022-11-27T02:45:38.604Z,38.97
2022-11-27T02:48:09.314Z,39.35
2022-11-27T02:50:40.434Z,44.53
2022-11-27T02:53:13.944Z,40.38
2022-11-27T02:55:44.450Z,41.03
2022-11-27T02:58:17.907Z,39.63
2022-11-27T03:00:48.862Z,41.10
2022-11-27T03:03:21.170Z,40.17
2022-11-27T03:05:52.574Z,39.47
2022-11-27T03:08:26.867Z,42.88
2022-11-27T03:11:00.706Z,40.08
2022-11-27T03:13:30.015Z,33.20
2022-11-27T03:16:09.876Z,41.70
2022-11-27T03:18:43.903Z,37.78
2022-11-27T03:21:24.130Z,34.15
2022-11-27T03:23:52.710Z,40.20
2022-11-27T03:26:20.957Z,44.10
2022-11-27T03:28:52.016Z,34.13
2022-11-27T03:31:23.789Z,31.42
2022-11-27T03:33:52.542Z,36.95
2022-11-27T03:36:23.110Z,33.83
2022-11-27T03:38:54.330Z,33.22
2022-11-27T03:41:31.347Z,40.92
2022-11-27T03:44:07.997Z,35.10
2022-11-27T03:46:47.245Z,34.40
2022-11-27T03:49:25.065Z,30.92
2022-11-27T03:52:00.078Z,38.17
2022-11-27T03:54:37.436Z,35.15
2022-11-27T03:57:14.160Z,34.30
2022-11-27T03:59:45.729Z,34.38
2022-11-27T04:02:17.921Z,31.52
2022-11-27T04:04:46.582Z,28.88
2022-11-27T04:07:18.245Z,31.45
2022-11-27T04:09:46.375Z,32.05
2022-11-27T04:12:14.556Z,28.98
2022-11-27T04:14:42.937Z,31.65
2022-11-27T04:17:11.373Z,30.23
2022-11-27T04:19:40.952Z,33.55
2022-11-27T04:22:09.113Z,32.53
2022-11-27T04:24:37.348Z,36.30
2022-11-27T04:27:05.562Z,31.50
2022-11-27T04:29:33.943Z,35.83
2022-11-27T04:32:02.172Z,33.28
2022-11-27T04:34:30.342Z,29.02
2022-11-27T04:37:00.156Z,35.55
2022-11-27T04:39:28.361Z,35.13
2022-11-27T04:41:56.549Z,32.63
2022-11-27T04:44:24.691Z,33.72
2022-11-27T04:46:52.813Z,30.48
2022-11-27T04:49:21.237Z,40.90
2022-11-27T04:51:49.392Z,37.28
2022-11-27T04:54:19.070Z,36.25
2022-11-27T04:56:47.218Z,35.78
2022-11-27T04:59:15.963Z,35.95
2022-11-27T05:01:44.163Z,35.90
2022-11-27T05:04:12.441Z,37.50
2022-11-27T05:09:27.684Z,32.05
2022-11-27T05:11:56.031Z,42.78
2022-11-27T05:17:15.069Z,38.40
2022-11-27T05:19:43.261Z,39.80
2022-11-27T05:22:11.614Z,38.55
2022-11-27T05:24:41.504Z,39.65
2022-11-27T05:27:10.365Z,40.28
2022-11-27T05:29:39.932Z,35.33
2022-11-27T05:32:08.094Z,36.50
2022-11-27T05:34:36.413Z,39.58
2022-11-27T05:37:04.700Z,33.67
2022-11-27T05:39:32.985Z,31.80
2022-11-27T05:42:02.553Z,34.50
2022-11-27T05:44:30.876Z,38.15
2022-11-27T05:46:59.037Z,35.00
2022-11-27T05:49:27.224Z,31.70
2022-11-27T05:51:55.354Z,31.77
2022-11-27T05:57:10.900Z,32.45
2022-11-27T05:59:39.018Z,35.15
2022-11-27T06:02:07.649Z,35.45
2022-11-27T06:04:35.989Z,32.83
2022-11-27T06:07:04.315Z,41.20
2022-11-27T06:09:32.431Z,38.15
2022-11-27T06:12:00.595Z,40.15
2022-11-27T06:14:31.794Z,45.75
2022-11-27T06:17:00.035Z,41.05
2022-11-27T06:19:28.640Z,39.88
2022-11-27T06:21:56.804Z,37.17
2022-11-27T06:24:25.557Z,36.58
2022-11-27T06:26:53.683Z,36.75
2022-11-27T06:29:21.899Z,34.95
2022-11-27T06:31:51.537Z,37.03
2022-11-27T06:34:19.743Z,36.40
2022-11-27T06:36:49.308Z,40.88
2022-11-27T06:39:17.743Z,37.55
2022-11-27T06:41:45.900Z,41.10
2022-11-27T06:44:14.139Z,44.00
2022-11-27T06:46:42.377Z,57.05
2022-11-27T06:49:12.094Z,55.95
2022-11-27T06:51:40.515Z,49.95
2022-11-27T06:54:08.662Z,51.72
2022-11-27T06:56:36.832Z,40.72
2022-11-27T06:59:05.021Z,35.28
2022-11-27T07:01:34.419Z,40.33
2022-11-27T07:04:02.674Z,35.75
2022-11-27T07:06:32.217Z,39.65
2022-11-27T07:09:00.445Z,40.25
2022-11-27T07:11:32.001Z,37.03
2022-11-27T07:14:02.276Z,33.60
2022-11-27T07:16:32.710Z,34.97
2022-11-27T07:19:02.994Z,32.85
2022-11-27T07:21:32.689Z,32.50
2022-11-27T07:24:02.049Z,31.50
2022-11-27T07:26:31.706Z,38.65
2022-11-27T07:28:59.929Z,31.23
2022-11-27T07:31:30.347Z,43.22
2022-11-27T07:33:59.175Z,35.88
2022-11-27T07:36:29.588Z,37.42
2022-11-27T07:38:59.498Z,37.40
2022-11-27T07:41:33.524Z,40.70
2022-11-27T07:44:02.358Z,37.40
2022-11-27T07:46:31.037Z,33.70
2022-11-27T07:49:00.501Z,33.92
2022-11-27T07:51:29.052Z,38.25
2022-11-27T07:53:57.211Z,28.27
2022-11-27T07:56:27.430Z,34.17
2022-11-27T07:58:55.652Z,28.95
2022-11-27T08:01:23.833Z,30.70
2022-11-27T08:03:52.089Z,31.15
2022-11-27T08:06:22.735Z,32.53
2022-11-27T08:08:51.393Z,30.95
2022-11-27T08:11:22.238Z,32.55
2022-11-27T08:13:56.201Z,30.30
2022-11-27T08:16:24.594Z,27.75
2022-11-27T08:18:52.846Z,26.73
2022-11-27T08:21:21.576Z,27.15
2022-11-27T08:23:49.911Z,27.85
2022-11-27T08:26:18.111Z,29.08
2022-11-27T08:28:46.569Z,31.60
2022-11-27T08:31:16.506Z,30.77
2022-11-27T08:33:44.695Z,28.80
2022-11-27T08:36:17.807Z,29.08
2022-11-27T08:38:46.719Z,28.48
2022-11-27T08:41:14.976Z,30.42
2022-11-27T08:43:43.217Z,31.13
2022-11-27T08:46:11.975Z,34.20
2022-11-27T08:48:41.933Z,32.33
2022-11-27T08:51:12.442Z,34.08
2022-11-27T08:53:41.345Z,32.75
2022-11-27T08:56:12.935Z,33.25
2022-11-27T08:58:41.794Z,30.90
2022-11-27T09:01:11.692Z,32.92
2022-11-27T09:03:41.356Z,34.20
2022-11-27T09:06:11.862Z,39.08
2022-11-27T09:08:40.138Z,40.63
2022-11-27T09:11:09.074Z,40.35
2022-11-27T09:13:37.834Z,46.72
2022-11-27T09:16:06.649Z,47.03
2022-11-27T09:18:35.390Z,43.90
2022-11-27T09:21:07.806Z,46.03
2022-11-27T09:23:37.504Z,41.53
2022-11-27T09:26:07.499Z,49.22
2022-11-27T09:28:36.457Z,55.65
2022-11-27T09:31:06.753Z,43.65
2022-11-27T09:33:36.704Z,52.42
2022-11-27T09:36:08.681Z,43.38
2022-11-27T09:38:37.663Z,47.70
2022-11-27T09:41:16.669Z,49.70
2022-11-27T09:43:50.807Z,37.05
2022-11-27T09:46:28.127Z,55.58
2022-11-27T09:48:59.009Z,41.17
2022-11-27T09:51:34.157Z,45.28
2022-11-27T09:54:07.776Z,38.05
2022-11-27T09:56:37.639Z,41.17
2022-11-27T09:59:15.551Z,45.03
2022-11-27T10:01:49.273Z,39.05
2022-11-27T10:04:21.515Z,35.28
2022-11-27T10:07:14.529Z,35.05
2022-11-27T10:09:59.392Z,42.05
2022-11-27T10:12:37.156Z,41.88
2022-11-27T10:15:12.490Z,36.97
2022-11-27T10:17:44.871Z,40.90
2022-11-27T10:20:23.634Z,38.75
2022-11-27T10:23:00.211Z,35.85
2022-11-27T10:25:33.710Z,39.67
2022-11-27T10:28:13.719Z,39.33
2022-11-27T10:30:50.493Z,43.38
2022-11-27T10:33:23.960Z,42.63
2022-11-27T10:35:53.448Z,38.05
2022-11-27T10:38:26.695Z,39.42
2022-11-27T10:41:06.403Z,43.25
2022-11-27T10:43:36.000Z,42.20
2022-11-27T10:46:10.255Z,39.30
2022-11-27T10:48:38.492Z,34.60
2022-11-27T10:51:15.267Z,40.30
2022-11-27T10:53:48.503Z,40.08
2022-11-27T10:57:01.873Z,35.30
2022-11-27T10:59:35.903Z,35.58
2022-11-27T11:02:05.770Z,37.95
2022-11-27T11:04:54.517Z,33.15
2022-11-27T11:07:26.717Z,37.80
2022-11-27T11:09:57.374Z,35.20
2022-11-27T11:12:25.843Z,36.65
2022-11-27T11:14:55.260Z,32.10
2022-11-27T11:17:28.166Z,34.88
2022-11-27T11:19:56.425Z,44.53
2022-11-27T11:22:25.206Z,36.15
2022-11-27T11:24:54.772Z,36.22
2022-11-27T11:27:29.189Z,39.83
2022-11-27T11:30:00.671Z,35.33
2022-11-27T11:32:33.781Z,44.03
2022-11-27T11:35:06.291Z,36.47
2022-11-27T11:37:36.858Z,32.40
2022-11-27T11:40:13.162Z,32.53
2022-11-27T11:42:53.646Z,32.45
2022-11-27T11:45:23.162Z,29.45
2022-11-27T11:47:52.891Z,27.65
2022-11-27T11:50:30.519Z,28.88
2022-11-27T11:53:03.504Z,22.60
2022-11-27T11:55:40.846Z,16.35
2022-11-27T11:58:38.279Z,16.55
2022-11-27T12:01:27.537Z,16.45
2022-11-27T12:04:09.414Z,20.70
2022-11-27T12:06:51.306Z,21.25
2022-11-27T12:09:35.860Z,20.98
2022-11-27T12:12:20.005Z,20.50
2022-11-27T12:14:56.201Z,24.70
2022-11-27T12:17:42.950Z,20.90
2022-11-27T12:20:18.154Z,22.05
2022-11-27T12:23:18.594Z,23.70
2022-11-27T12:25:56.048Z,28.25
2022-11-27T12:28:47.926Z,23.05
2022-11-27T12:31:31.421Z,21.85
2022-11-27T12:34:04.253Z,23.50
2022-11-27T12:36:47.121Z,24.70
2022-11-27T12:39:26.333Z,24.52
2022-11-27T12:42:06.699Z,29.05
2022-11-27T12:44:45.624Z,28.27
2022-11-27T12:47:22.559Z,27.17
2022-11-27T12:49:56.254Z,27.10
2022-11-27T12:52:29.466Z,27.02
2022-11-27T12:55:03.036Z,33.33
2022-11-27T12:57:37.898Z,31.70
2022-11-27T13:00:14.969Z,27.58
2022-11-27T13:02:51.370Z,33.70
2022-11-27T13:05:25.161Z,24.42
2022-11-27T13:07:58.729Z,24.75
2022-11-27T13:10:34.007Z,26.63
2022-11-27T13:13:08.001Z,27.05
2022-11-27T13:15:41.772Z,24.40
2022-11-27T13:18:20.070Z,25.00
2022-11-27T13:20:52.743Z,21.98
2022-11-27T13:23:21.683Z,23.25
2022-11-27T13:25:54.731Z,22.92
2022-11-27T13:28:28.345Z,19.50
2022-11-27T13:31:00.028Z,22.20
2022-11-27T13:33:38.977Z,19.63
2022-11-27T13:36:19.038Z,22.25
2022-11-27T13:38:53.930Z,20.33
2022-11-27T13:41:24.002Z,17.38
2022-11-27T13:43:53.226Z,21.27
2022-11-27T13:46:25.974Z,17.52
2022-11-27T13:48:57.616Z,20.58
2022-11-27T13:51:28.963Z,15.68
2022-11-27T13:54:09.342Z,15.85
2022-11-27T13:56:37.609Z,16.55
2022-11-27T13:59:18.172Z,16.73
2022-11-27T14:01:58.174Z,14.77
2022-11-27T14:04:28.730Z,16.05
2022-11-27T14:07:03.431Z,14.80
2022-11-27T14:09:37.928Z,14.00
2022-11-27T14:12:17.982Z,13.05
2022-11-27T14:14:57.768Z,11.43
2022-11-27T14:17:28.994Z,13.55
2022-11-27T14:20:06.876Z,11.82
2022-11-27T14:23:09.912Z,9.55
2022-11-27T14:25:36.357Z,12.85
2022-11-27T14:28:12.828Z,10.35
2022-11-27T14:30:45.901Z,8.00
2022-11-27T14:33:20.083Z,10.00
2022-11-27T14:35:54.869Z,9.27
2022-11-27T14:38:23.915Z,9.55
2022-11-27T14:40:54.295Z,9.75
2022-11-27T14:43:26.071Z,8.93
2022-11-27T14:45:56.471Z,10.50
2022-11-27T14:48:26.296Z,8.43
2022-11-27T14:50:57.868Z,8.20
2022-11-27T14:53:28.844Z,8.90
2022-11-27T14:55:59.620Z,7.35
2022-11-27T14:58:30.278Z,6.88
2022-11-27T15:01:01.277Z,8.20
2022-11-27T15:03:30.428Z,6.22
2022-11-27T15:06:01.700Z,9.07
2022-11-27T15:08:33.174Z,7.70
2022-11-27T15:11:03.595Z,8.65
2022-11-27T15:13:34.387Z,7.82
2022-11-27T15:16:06.069Z,10.13
2022-11-27T15:18:38.273Z,7.95
2022-11-27T15:21:13.737Z,7.88
2022-11-27T15:23:47.593Z,8.02
2022-11-27T15:26:34.733Z,10.68
2022-11-27T15:29:05.792Z,7.45
2022-11-27T15:31:38.501Z,10.23
2022-11-27T15:34:24.922Z,9.35
2022-11-27T15:36:59.790Z,10.27
2022-11-27T15:39:47.530Z,8.73
2022-11-27T15:42:18.762Z,9.82
2022-11-27T15:44:50.716Z,10.07
2022-11-27T15:47:28.340Z,11.48
2022-11-27T15:49:59.752Z,18.95
2022-11-27T15:52:31.657Z,11.27
2022-11-27T15:55:01.730Z,12.48
2022-11-27T15:57:31.801Z,12.15
2022-11-27T16:00:02.137Z,10.85
2022-11-27T16:02:43.878Z,16.92
2022-11-27T16:05:15.240Z,12.77
2022-11-27T16:07:53.543Z,15.23
2022-11-27T16:10:27.600Z,13.50
2022-11-27T16:12:58.938Z,12.55
2022-11-27T16:15:32.983Z,11.75
2022-11-27T16:18:08.271Z,13.18
2022-11-27T16:20:38.789Z,12.15
2022-11-27T16:23:11.607Z,13.05
2022-11-27T16:25:41.837Z,11.25
2022-11-27T16:28:14.358Z,15.30
2022-11-27T16:30:46.934Z,12.90
2022-11-27T16:33:19.910Z,11.38
2022-11-27T16:35:50.508Z,11.32
2022-11-27T16:38:33.069Z,10.82
2022-11-27T16:41:08.484Z,13.10
2022-11-27T16:43:40.617Z,13.70
2022-11-27T16:46:17.796Z,14.07
2022-11-27T16:48:49.997Z,13.35
2022-11-27T16:51:22.705Z,11.50
2022-11-27T16:53:57.125Z,11.70
2022-11-27T16:56:29.489Z,10.30
2022-11-27T16:59:03.017Z,12.65
2022-11-27T17:01:37.655Z,13.90
2022-11-27T17:04:10.814Z,13.48
2022-11-27T17:06:41.720Z,14.48
2022-11-27T17:09:16.065Z,12.70
2022-11-27T17:11:49.079Z,13.80
2022-11-27T17:14:20.925Z,15.15
2022-11-27T17:16:52.457Z,14.25
2022-11-27T17:19:27.072Z,12.98
2022-11-27T17:22:00.505Z,16.20
2022-11-27T17:24:39.689Z,11.38
2022-11-27T17:27:11.725Z,12.60
2022-11-27T17:29:43.510Z,15.70
2022-11-27T17:32:16.637Z,12.32
2022-11-27T17:34:47.854Z,13.05
2022-11-27T17:37:22.151Z,11.77
2022-11-27T17:39:58.393Z,13.88
2022-11-27T17:42:28.986Z,14.95
2022-11-27T17:45:02.796Z,13.75
2022-11-27T17:47:35.333Z,13.57
2022-11-27T17:50:10.101Z,21.25
2022-11-27T17:52:43.073Z,13.52
2022-11-27T17:55:15.940Z,14.25
2022-11-27T17:57:46.466Z,12.38
2022-11-27T18:00:19.946Z,18.85
2022-11-27T18:02:51.963Z,15.15
2022-11-27T18:05:23.581Z,12.50
2022-11-27T18:07:56.791Z,10.80
2022-11-27T18:10:29.333Z,12.35
2022-11-27T18:13:01.655Z,11.40
2022-11-27T18:15:32.234Z,9.38
2022-11-27T18:18:02.909Z,8.32
2022-11-27T18:20:33.672Z,15.98
2022-11-27T18:23:04.259Z,16.73
2022-11-27T18:25:37.836Z,23.30
2022-11-27T18:28:10.653Z,15.15
2022-11-27T18:30:43.710Z,12.48
2022-11-27T18:33:16.570Z,13.23
2022-11-27T18:35:54.032Z,14.75
2022-11-27T18:38:25.588Z,11.07
2022-11-27T18:40:57.909Z,13.80
2022-11-27T18:43:29.421Z,12.43
2022-11-27T18:46:03.869Z,9.52
2022-11-27T18:48:35.560Z,10.57
2022-11-27T18:51:09.626Z,11.90
2022-11-27T18:53:44.231Z,9.98
2022-11-27T18:56:19.330Z,13.98
2022-11-27T18:58:52.210Z,10.77
2022-11-27T19:01:24.905Z,14.68
2022-11-27T19:03:59.083Z,10.77
2022-11-27T19:06:31.329Z,15.57
2022-11-27T19:09:02.190Z,12.45
2022-11-27T19:11:35.016Z,11.10
2022-11-27T19:14:07.789Z,14.32
2022-11-27T19:16:42.163Z,14.95
2022-11-27T19:19:53.341Z,14.52
2022-11-27T19:22:12.447Z,11.88
2022-11-27T19:24:44.606Z,11.43
2022-11-27T19:27:19.639Z,13.85
2022-11-27T19:29:51.224Z,14.02
2022-11-27T19:32:23.204Z,11.30
2022-11-27T19:34:55.369Z,13.00
2022-11-27T19:37:34.545Z,14.13
2022-11-27T19:40:07.217Z,13.32
2022-11-27T19:42:40.724Z,13.25
2022-11-27T19:45:13.105Z,11.70
2022-11-27T19:47:44.817Z,12.77
2022-11-27T19:50:17.316Z,12.35
2022-11-27T19:52:49.136Z,11.43
2022-11-27T19:55:19.935Z,10.30
2022-11-27T19:57:52.513Z,11.77
2022-11-27T20:00:24.648Z,11.50
2022-11-27T20:02:59.239Z,12.48
2022-11-27T20:05:32.123Z,11.40
2022-11-27T20:08:04.693Z,13.20
2022-11-27T20:10:35.581Z,11.73
2022-11-27T20:13:08.158Z,11.85
2022-11-27T20:15:43.660Z,11.50
2022-11-27T20:18:16.338Z,10.05
2022-11-27T20:20:48.215Z,6.80
2022-11-27T20:23:22.773Z,7.20
2022-11-27T20:25:54.583Z,8.40
2022-11-27T20:28:30.872Z,11.40
2022-11-27T20:31:07.117Z,7.22
2022-11-27T20:33:41.235Z,11.70
2022-11-27T20:36:16.904Z,9.35
2022-11-27T20:38:50.536Z,12.80
2022-11-27T20:41:23.066Z,10.63
2022-11-27T20:43:57.147Z,12.40
2022-11-27T20:46:28.329Z,11.65
2022-11-27T20:48:58.805Z,13.43
2022-11-27T20:51:34.615Z,14.05
2022-11-27T20:54:12.942Z,9.48
2022-11-27T20:56:45.084Z,9.73
2022-11-27T20:59:17.709Z,11.43
2022-11-27T21:01:48.209Z,11.75
2022-11-27T21:04:24.455Z,12.88
2022-11-27T21:06:56.523Z,9.77
2022-11-27T21:09:27.931Z,12.20
2022-11-27T21:11:59.364Z,16.65
2022-11-27T21:14:30.772Z,10.90
2022-11-27T21:17:04.779Z,10.77
2022-11-27T21:19:36.334Z,11.30
2022-11-27T21:22:05.553Z,13.93
2022-11-27T21:24:35.373Z,10.27
2022-11-27T21:27:05.513Z,11.90
2022-11-27T21:29:35.700Z,12.07
2022-11-27T21:32:05.189Z,13.65
2022-11-27T21:34:33.536Z,12.10
2022-11-27T21:37:02.779Z,13.90
2022-11-27T21:39:31.919Z,11.88
2022-11-27T21:42:01.359Z,12.60
2022-11-27T21:44:30.144Z,15.18
2022-11-27T21:47:01.629Z,17.27
2022-11-27T21:49:30.895Z,17.88
2022-11-27T21:52:01.458Z,16.73
2022-11-27T21:54:34.157Z,18.58
2022-11-27T21:57:02.700Z,21.17
2022-11-27T21:59:31.323Z,16.85
2022-11-27T22:02:01.156Z,19.85
2022-11-27T22:04:30.285Z,17.08
2022-11-27T22:06:59.029Z,15.57
2022-11-27T22:09:30.267Z,16.02
2022-11-27T22:11:59.356Z,16.13
2022-11-27T22:14:28.038Z,19.40
2022-11-27T22:16:57.727Z,18.25
2022-11-27T22:19:29.166Z,18.23
2022-11-27T22:21:57.905Z,22.30
2022-11-27T22:24:26.165Z,16.02
2022-11-27T22:26:54.361Z,16.38
2022-11-27T22:29:22.671Z,19.85
2022-11-27T22:31:53.044Z,14.82
2022-11-27T22:34:21.972Z,17.27
2022-11-27T22:36:51.640Z,17.83
2022-11-27T22:39:20.012Z,16.98
2022-11-27T22:41:48.497Z,18.05
2022-11-27T22:44:18.631Z,16.38
2022-11-27T22:46:48.315Z,14.02
2022-11-27T22:49:18.509Z,17.02
2022-11-27T22:51:47.599Z,19.88
2022-11-27T22:54:18.636Z,22.73
2022-11-27T22:56:47.151Z,15.55
2022-11-27T22:59:33.757Z,15.18
2022-11-27T23:02:05.919Z,13.43
2022-11-27T23:04:34.991Z,16.25
2022-11-27T23:07:04.175Z,16.48
2022-11-27T23:09:34.000Z,17.77
2022-11-27T23:12:02.215Z,14.05
2022-11-27T23:14:30.610Z,13.73
2022-11-27T23:16:58.921Z,18.20
2022-11-27T23:19:27.194Z,14.88
2022-11-27T23:21:55.424Z,14.15
2022-11-27T23:24:23.678Z,13.10
2022-11-27T23:26:53.316Z,16.88
2022-11-27T23:29:21.500Z,13.60
2022-11-27T23:31:49.782Z,14.73
2022-11-27T23:34:18.037Z,12.93
2022-11-27T23:36:46.209Z,11.35
2022-11-27T23:39:15.168Z,11.23
2022-11-27T23:41:43.825Z,10.13
2022-11-27T23:44:13.417Z,15.40
2022-11-27T23:46:41.695Z,15.73
2022-11-27T23:49:11.098Z,12.02
2022-11-27T23:51:39.327Z,14.35
2022-11-27T23:54:10.206Z,13.55
2022-11-27T23:56:39.776Z,17.15
2022-11-27T23:59:08.255Z,13.38
